Anaktuvuk, Alaska
Current Conditions -  °F | °C
As of 9:16 AM on Thursday 27 Nov 2014 (Local Time) from PAKP Reporting Station
Clear Clear  
Wind Chill: -24°   Ceiling: Unl
Heat Index: -2°   Visibility: 10mi
Dew Point: -11°   Wind: 17mph
Humidity: 66%   Direction: 190°S
Pressure: 30.21"   Gusts: NA
Location:  68.565°N, 152.085°W
Report Text: PAKP 271816Z AUTO 19015KT 10SM CLR M19/M24 A3021 RMK AO1
Loading
Personal Weather Stations






























Interactive Weather Map New forecast layout! Learn more

10-Day Weather Forecast

Advertisements
Track Severe Weather on mobile